INFORMACIÓN METAR y TAF

METAR FOR SAEZ
ADDS - METARS form results

(1338 UTC 04 August 2021)
Data provider http://aviationweather.gov/metar/data/
 
METAR text: SAEZ 041300Z 02003KT 340V060 3000 BR NSC 11/09 Q1031 BECMG 02003KT TL1500 3000 BR
Conditions at: SAEZ (BUENOS AIRES/EZE, AR) observed 1300 UTC 04 August 2021
Temperature: 11.0°C (52°F)
Dewpoint: 9.0°C (48°F) [RH = 87%]
Pressure (altimeter): 30.44 inches Hg (1031.0 mb)
Winds: from the NNE (20 degrees) at 3 MPH (3 knots; 1.5 m/s)
Visibility: 1.86 miles (2.99 km)
Ceiling: at least 12,000 feet AGL
Clouds: sky clear below 12,000 feet AGL
Weather: BR  (mist)

METAR text: SAEZ 041250Z 07002KT 2000 BR NSC 03/03 Q1031 BECMG 3000 BR NSC
Conditions at: SAEZ (BUENOS AIRES/EZE, AR) observed 1250 UTC 04 August 2021
Temperature: 3.0°C (37°F)
Dewpoint: 3.0°C (37°F) [RH = 100%]
Pressure (altimeter): 30.44 inches Hg (1031.0 mb)
Winds: from the ENE (70 degrees) at 2 MPH (2 knots; 1.0 m/s)
Visibility: 1.24 miles (2.00 km)
Ceiling: at least 12,000 feet AGL
Clouds: sky clear below 12,000 feet AGL
Weather: BR  (mist)

METAR text: SAEZ 041240Z 07002KT 0800 R11/P2000 BCFG NSC 03/03 Q1031 BECMG 3000 BR NSC
Conditions at: SAEZ (BUENOS AIRES/EZE, AR) observed 1240 UTC 04 August 2021
Temperature: 3.0°C (37°F)
Dewpoint: 3.0°C (37°F) [RH = 100%]
Pressure (altimeter): 30.44 inches Hg (1031.0 mb)
Winds: from the ENE (70 degrees) at 2 MPH (2 knots; 1.0 m/s)
Visibility: 0.50 miles (0.80 km)
Ceiling: at least 12,000 feet AGL
Clouds: sky clear below 12,000 feet AGL
Weather: BCFG  (patches of fog)

Forecast for: SAEZ (BUENOS AIRES/EZE, AR)
Text: TAF SAEZ 041100Z 0412/0512 VRB03KT 0050 FG NSC TX19/0418Z TN02/0510Z
Forecast period: 1200 to 1300 UTC 04 August 2021
Forecast type: FROM: standard forecast or significant change
Winds: variable direction winds at 3 MPH (3 knots; 1.5 m/s)
Visibility: 0.03 miles (0.05 km)
Ceiling: unknown
Clouds: missing
Weather: FG  (fog)
Text: BECMG 0413/0415 03005KT 3000 BR NSC
Forecast period: 1300 to 1500 UTC 04 August 2021
Forecast type: BECOMING: Conditions expected to become as follows by 1500 UTC 04 August 2021
Winds: from the NNE (30 degrees) at 6 MPH (5 knots; 2.6 m/s)
Visibility: 1.86 miles (2.99 km)
Ceiling: unknown
Clouds: missing
Weather: BR  (mist)
Text: BECMG 0415/0417 CAVOK
Forecast period: 1500 UTC 04 August 2021 to 1200 UTC 05 August 2021
Forecast type: BECOMING: Conditions expected to become as follows by 1700 UTC 04 August 2021
Winds: from the NNE (30 degrees) at 6 MPH (5 knots; 2.6 m/s)
Visibility: 6 or more miles (10+ km)
Ceiling: unknown
Clouds: missing
Weather: NSW  (no significant weather)
Text: TEMPO 0420/0423 09005KT
Forecast period: 2000 to 2300 UTC 04 August 2021
Forecast type: TEMPORARY: The following changes expected for less than half the time period
Winds: from the E (90 degrees) at 6 MPH (5 knots; 2.6 m/s)
Visibility: missing
Ceiling: unknown
Clouds: missing
Weather: no significant weather forecast for this period

 MAPA DE AEROPUERTO

 INFORMACIÓN DE PISTA
Pista 11 Longitud 10827 ft Ancho 197 ft
Elevación 62 ft Umbral desplazado 0 ft Rumbo de pista 102
Pista 29 Longitud 10827 ft Ancho 197 ft
Elevación 66 ft Umbral desplazado 0 ft Rumbo de pista 282
Pista 17 Longitud 10187 ft Ancho 148 ft
Elevación 62 ft Umbral desplazado 0 ft Rumbo de pista 164
Pista 35 Longitud 10187 ft Ancho 148 ft
Elevación 67 ft Umbral desplazado 984 ft Rumbo de pista 344

 FRECUENCIAS DEL AEROPUERTO
Tipo A/D Nombre BAIRES CON Frecuencia 124.9 MHZ
Tipo APP Nombre EZEIZA APP Frecuencia 119.9 MHZ
Tipo ATIS Nombre ATIS Frecuencia 127.8 MHZ
Tipo GCCD Nombre GND/CLNC D Frecuencia 121.75 MHZ
Tipo TWR Nombre EZEIZA TWR Frecuencia 118.6 MHZ

 RADIO AYUDAS DEL AEROPUERTO
Tipo VOR-DME Nombre Ezeiza Frecuencia 116500 KHZ



©2021 LAPA Virtual - Todos los derechos reservados.

VAM [MOD Version] - Powered & Development by AccessPoint LLC